sensor_id;sensor_type;location;lat;lon;timestamp;pressure;altitude;pressure_sealevel;temperature;humidity
7532;BME280;3807;49.030;8.714;2023-08-01T00:00:29;98292.28;;;22.74;61.63
7532;BME280;3807;49.030;8.714;2023-08-01T00:02:54;98291.13;;;22.76;61.46
7532;BME280;3807;49.030;8.714;2023-08-01T00:05:19;98281.88;;;22.74;61.47
7532;BME280;3807;49.030;8.714;2023-08-01T00:07:45;98271.66;;;22.72;61.44
7532;BME280;3807;49.030;8.714;2023-08-01T00:10:10;98267.44;;;22.71;61.74
7532;BME280;3807;49.030;8.714;2023-08-01T00:12:36;98272.75;;;22.70;61.73
7532;BME280;3807;49.030;8.714;2023-08-01T00:15:01;98263.66;;;22.66;61.80
7532;BME280;3807;49.030;8.714;2023-08-01T00:17:27;98243.69;;;22.66;61.86
7532;BME280;3807;49.030;8.714;2023-08-01T00:19:52;98229.41;;;22.62;62.05
7532;BME280;3807;49.030;8.714;2023-08-01T00:22:18;98202.81;;;22.60;62.26
7532;BME280;3807;49.030;8.714;2023-08-01T00:24:43;98185.59;;;22.59;62.50
7532;BME280;3807;49.030;8.714;2023-08-01T00:27:08;98176.88;;;22.60;62.67
7532;BME280;3807;49.030;8.714;2023-08-01T00:29:35;98166.00;;;22.56;62.75
7532;BME280;3807;49.030;8.714;2023-08-01T00:32:01;98154.81;;;22.56;62.87
7532;BME280;3807;49.030;8.714;2023-08-01T00:34:26;98139.53;;;22.53;63.01
7532;BME280;3807;49.030;8.714;2023-08-01T00:36:51;98135.47;;;22.50;63.20
7532;BME280;3807;49.030;8.714;2023-08-01T00:39:17;98121.03;;;22.48;63.25
7532;BME280;3807;49.030;8.714;2023-08-01T00:41:42;98121.19;;;22.46;63.36
7532;BME280;3807;49.030;8.714;2023-08-01T00:44:07;98128.97;;;22.46;63.13
7532;BME280;3807;49.030;8.714;2023-08-01T00:46:33;98131.56;;;22.46;63.45
7532;BME280;3807;49.030;8.714;2023-08-01T00:48:58;98132.00;;;22.42;63.04
7532;BME280;3807;49.030;8.714;2023-08-01T00:51:25;98117.75;;;22.38;62.76
7532;BME280;3807;49.030;8.714;2023-08-01T00:53:51;98118.03;;;22.34;63.79
7532;BME280;3807;49.030;8.714;2023-08-01T00:56:17;98121.62;;;22.33;63.67
7532;BME280;3807;49.030;8.714;2023-08-01T00:58:42;98120.00;;;22.32;63.50
7532;BME280;3807;49.030;8.714;2023-08-01T01:01:08;98126.97;;;22.32;63.60
7532;BME280;3807;49.030;8.714;2023-08-01T01:03:33;98125.63;;;22.28;62.67
7532;BME280;3807;49.030;8.714;2023-08-01T01:06:31;98141.53;;;22.25;63.53
7532;BME280;3807;49.030;8.714;2023-08-01T01:08:57;98147.06;;;22.30;62.75
7532;BME280;3807;49.030;8.714;2023-08-01T01:11:22;98155.13;;;22.27;63.94
7532;BME280;3807;49.030;8.714;2023-08-01T01:13:47;98170.06;;;22.25;63.89
7532;BME280;3807;49.030;8.714;2023-08-01T01:16:13;98179.91;;;22.21;64.11
7532;BME280;3807;49.030;8.714;2023-08-01T01:18:38;98178.47;;;22.01;64.10
7532;BME280;3807;49.030;8.714;2023-08-01T01:21:03;98180.19;;;21.74;65.73
7532;BME280;3807;49.030;8.714;2023-08-01T01:23:30;98180.16;;;21.66;66.26
7532;BME280;3807;49.030;8.714;2023-08-01T01:25:57;98156.00;;;21.66;66.50
7532;BME280;3807;49.030;8.714;2023-08-01T01:28:24;98133.34;;;21.68;65.87
7532;BME280;3807;49.030;8.714;2023-08-01T01:30:51;98128.06;;;21.77;65.74
7532;BME280;3807;49.030;8.714;2023-08-01T01:33:18;98118.72;;;21.84;65.25
7532;BME280;3807;49.030;8.714;2023-08-01T01:35:44;98126.84;;;21.89;65.01
7532;BME280;3807;49.030;8.714;2023-08-01T01:38:09;98137.22;;;21.89;64.75
7532;BME280;3807;49.030;8.714;2023-08-01T01:40:34;98113.28;;;21.96;64.79
7532;BME280;3807;49.030;8.714;2023-08-01T01:43:00;98089.94;;;21.96;65.17
7532;BME280;3807;49.030;8.714;2023-08-01T01:45:26;98089.75;;;21.89;64.79
7532;BME280;3807;49.030;8.714;2023-08-01T01:47:52;98095.91;;;21.88;64.98
7532;BME280;3807;49.030;8.714;2023-08-01T01:50:17;98087.81;;;21.91;64.73
7532;BME280;3807;49.030;8.714;2023-08-01T01:52:43;98091.19;;;21.83;65.28
7532;BME280;3807;49.030;8.714;2023-08-01T01:55:09;98094.28;;;21.87;64.68
7532;BME280;3807;49.030;8.714;2023-08-01T01:57:34;98098.50;;;21.88;64.46
7532;BME280;3807;49.030;8.714;2023-08-01T02:00:01;98084.44;;;21.91;64.18
7532;BME280;3807;49.030;8.714;2023-08-01T02:02:27;98083.25;;;21.85;64.08
7532;BME280;3807;49.030;8.714;2023-08-01T02:04:52;98077.41;;;21.83;64.12
7532;BME280;3807;49.030;8.714;2023-08-01T02:07:17;98070.16;;;21.86;64.76
7532;BME280;3807;49.030;8.714;2023-08-01T02:09:43;98065.41;;;21.82;63.66
7532;BME280;3807;49.030;8.714;2023-08-01T02:12:08;98070.03;;;21.70;64.00
7532;BME280;3807;49.030;8.714;2023-08-01T02:14:35;98073.63;;;21.69;64.69
7532;BME280;3807;49.030;8.714;2023-08-01T02:17:01;98058.72;;;21.71;63.96
7532;BME280;3807;49.030;8.714;2023-08-01T02:19:27;98049.00;;;21.73;64.66
7532;BME280;3807;49.030;8.714;2023-08-01T02:21:53;98045.09;;;21.69;64.57
7532;BME280;3807;49.030;8.714;2023-08-01T02:24:18;98057.09;;;21.70;64.11
7532;BME280;3807;49.030;8.714;2023-08-01T02:26:44;98052.22;;;21.67;64.52
7532;BME280;3807;49.030;8.714;2023-08-01T02:29:09;98045.75;;;21.71;64.18
7532;BME280;3807;49.030;8.714;2023-08-01T02:31:34;98045.50;;;21.56;64.45
7532;BME280;3807;49.030;8.714;2023-08-01T02:34:00;98043.81;;;21.47;65.15
7532;BME280;3807;49.030;8.714;2023-08-01T02:36:26;98048.31;;;21.63;64.62
7532;BME280;3807;49.030;8.714;2023-08-01T02:38:51;98042.97;;;21.64;64.33
7532;BME280;3807;49.030;8.714;2023-08-01T02:41:16;98055.91;;;21.64;65.37
7532;BME280;3807;49.030;8.714;2023-08-01T02:43:42;98045.25;;;21.68;64.51
7532;BME280;3807;49.030;8.714;2023-08-01T02:46:07;98037.13;;;21.62;64.82
7532;BME280;3807;49.030;8.714;2023-08-01T02:48:32;98040.38;;;21.64;64.93
7532;BME280;3807;49.030;8.714;2023-08-01T02:50:58;98042.31;;;21.62;64.63
7532;BME280;3807;49.030;8.714;2023-08-01T02:53:23;98037.94;;;21.63;64.98
7532;BME280;3807;49.030;8.714;2023-08-01T02:55:49;98041.44;;;21.54;64.50
7532;BME280;3807;49.030;8.714;2023-08-01T02:58:14;98039.50;;;21.56;64.73
7532;BME280;3807;49.030;8.714;2023-08-01T03:00:39;98050.00;;;21.54;65.26
7532;BME280;3807;49.030;8.714;2023-08-01T03:03:06;98035.94;;;21.57;65.32
7532;BME280;3807;49.030;8.714;2023-08-01T03:05:31;98038.53;;;21.57;64.97
7532;BME280;3807;49.030;8.714;2023-08-01T03:07:57;98035.91;;;21.49;65.38
7532;BME280;3807;49.030;8.714;2023-08-01T03:10:23;98030.00;;;21.38;65.67
7532;BME280;3807;49.030;8.714;2023-08-01T03:12:48;98025.63;;;21.39;65.62
7532;BME280;3807;49.030;8.714;2023-08-01T03:15:13;98028.91;;;21.41;65.60
7532;BME280;3807;49.030;8.714;2023-08-01T03:17:39;98035.31;;;21.37;65.77
7532;BME280;3807;49.030;8.714;2023-08-01T03:20:04;98032.50;;;21.48;65.56
7532;BME280;3807;49.030;8.714;2023-08-01T03:22:30;98022.38;;;21.37;65.81
7532;BME280;3807;49.030;8.714;2023-08-01T03:24:55;98007.06;;;21.26;66.15
7532;BME280;3807;49.030;8.714;2023-08-01T03:27:21;97993.00;;;21.28;66.05
7532;BME280;3807;49.030;8.714;2023-08-01T03:29:46;97994.63;;;21.29;66.05
7532;BME280;3807;49.030;8.714;2023-08-01T03:32:12;97990.22;;;21.22;66.57
7532;BME280;3807;49.030;8.714;2023-08-01T03:34:37;97976.41;;;21.13;67.16
7532;BME280;3807;49.030;8.714;2023-08-01T03:37:04;97944.91;;;21.00;67.78
7532;BME280;3807;49.030;8.714;2023-08-01T03:39:29;97940.50;;;21.18;66.75
7532;BME280;3807;49.030;8.714;2023-08-01T03:41:55;97928.37;;;21.18;66.73
7532;BME280;3807;49.030;8.714;2023-08-01T03:44:20;97933.50;;;21.10;67.25
7532;BME280;3807;49.030;8.714;2023-08-01T03:46:45;97931.59;;;20.94;68.48
7532;BME280;3807;49.030;8.714;2023-08-01T03:49:12;97915.66;;;20.99;67.22
7532;BME280;3807;49.030;8.714;2023-08-01T03:51:38;97918.22;;;20.99;68.10
7532;BME280;3807;49.030;8.714;2023-08-01T03:54:03;97911.16;;;21.09;67.62
7532;BME280;3807;49.030;8.714;2023-08-01T03:56:29;97906.69;;;20.93;68.04
7532;BME280;3807;49.030;8.714;2023-08-01T03:58:54;97914.16;;;20.97;68.36
7532;BME280;3807;49.030;8.714;2023-08-01T04:01:20;97922.38;;;20.92;68.79
7532;BME280;3807;49.030;8.714;2023-08-01T04:03:45;97945.53;;;20.93;68.09
7532;BME280;3807;49.030;8.714;2023-08-01T04:06:10;97950.44;;;21.05;68.21
7532;BME280;3807;49.030;8.714;2023-08-01T04:08:40;97971.97;;;21.05;67.57
7532;BME280;3807;49.030;8.714;2023-08-01T04:11:05;97972.25;;;21.02;67.59
7532;BME280;3807;49.030;8.714;2023-08-01T04:13:31;97958.13;;;21.14;67.21
7532;BME280;3807;49.030;8.714;2023-08-01T04:15:56;97952.44;;;21.11;66.53
7532;BME280;3807;49.030;8.714;2023-08-01T04:18:21;97946.34;;;21.20;67.28
7532;BME280;3807;49.030;8.714;2023-08-01T04:20:46;97937.16;;;21.26;66.44
7532;BME280;3807;49.030;8.714;2023-08-01T04:23:12;97945.69;;;21.18;66.72
7532;BME280;3807;49.030;8.714;2023-08-01T04:25:40;97927.72;;;21.16;66.43
7532;BME280;3807;49.030;8.714;2023-08-01T04:28:05;97932.12;;;21.24;66.02
7532;BME280;3807;49.030;8.714;2023-08-01T04:30:30;97926.69;;;21.09;66.63
7532;BME280;3807;49.030;8.714;2023-08-01T04:32:58;97922.13;;;21.29;65.75
7532;BME280;3807;49.030;8.714;2023-08-01T04:35:23;97927.06;;;21.14;65.87
7532;BME280;3807;49.030;8.714;2023-08-01T04:37:49;97938.38;;;21.13;66.28
7532;BME280;3807;49.030;8.714;2023-08-01T04:40:14;97932.53;;;21.11;66.22
7532;BME280;3807;49.030;8.714;2023-08-01T04:42:39;97946.97;;;21.14;66.04
7532;BME280;3807;49.030;8.714;2023-08-01T04:45:05;97950.94;;;21.08;66.03
7532;BME280;3807;49.030;8.714;2023-08-01T04:47:32;97959.09;;;21.13;66.15
7532;BME280;3807;49.030;8.714;2023-08-01T04:49:57;97964.91;;;21.15;66.76
7532;BME280;3807;49.030;8.714;2023-08-01T04:52:23;97943.06;;;21.10;66.97
7532;BME280;3807;49.030;8.714;2023-08-01T04:54:48;97926.25;;;20.70;70.77
7532;BME280;3807;49.030;8.714;2023-08-01T04:57:13;97923.09;;;20.58;70.48
7532;BME280;3807;49.030;8.714;2023-08-01T04:59:39;97926.47;;;20.41;70.71
7532;BME280;3807;49.030;8.714;2023-08-01T05:02:04;97939.19;;;20.52;71.71
7532;BME280;3807;49.030;8.714;2023-08-01T05:04:29;97917.41;;;20.55;69.92
7532;BME280;3807;49.030;8.714;2023-08-01T05:06:55;97895.28;;;20.42;70.21
7532;BME280;3807;49.030;8.714;2023-08-01T05:09:20;97908.22;;;20.60;69.78
7532;BME280;3807;49.030;8.714;2023-08-01T05:11:46;97925.44;;;20.52;71.42
7532;BME280;3807;49.030;8.714;2023-08-01T05:14:11;97924.31;;;20.36;71.26
7532;BME280;3807;49.030;8.714;2023-08-01T05:16:36;97918.53;;;20.42;72.39
7532;BME280;3807;49.030;8.714;2023-08-01T05:19:02;97910.94;;;20.41;72.38
7532;BME280;3807;49.030;8.714;2023-08-01T05:21:27;97906.13;;;20.64;70.70
7532;BME280;3807;49.030;8.714;2023-08-01T05:23:52;97905.47;;;20.80;71.19
7532;BME280;3807;49.030;8.714;2023-08-01T05:26:18;97914.28;;;20.69;70.37
7532;BME280;3807;49.030;8.714;2023-08-01T05:28:43;97916.06;;;20.68;70.72
7532;BME280;3807;49.030;8.714;2023-08-01T05:31:09;97920.94;;;20.72;71.70
7532;BME280;3807;49.030;8.714;2023-08-01T05:33:34;97913.56;;;20.85;69.47
7532;BME280;3807;49.030;8.714;2023-08-01T05:35:59;97912.94;;;20.83;68.95
7532;BME280;3807;49.030;8.714;2023-08-01T05:38:25;97919.81;;;20.92;68.83
7532;BME280;3807;49.030;8.714;2023-08-01T05:40:50;97923.78;;;20.86;69.12
7532;BME280;3807;49.030;8.714;2023-08-01T05:43:15;97924.75;;;20.85;68.70
7532;BME280;3807;49.030;8.714;2023-08-01T05:45:41;97941.41;;;20.83;69.81
7532;BME280;3807;49.030;8.714;2023-08-01T05:48:06;97937.25;;;20.90;69.71
7532;BME280;3807;49.030;8.714;2023-08-01T05:50:32;97949.44;;;20.80;70.13
7532;BME280;3807;49.030;8.714;2023-08-01T05:52:57;97956.13;;;20.82;69.91
7532;BME280;3807;49.030;8.714;2023-08-01T05:55:22;97973.09;;;20.85;69.82
7532;BME280;3807;49.030;8.714;2023-08-01T05:57:48;97978.38;;;20.75;69.21
7532;BME280;3807;49.030;8.714;2023-08-01T06:00:18;97985.16;;;20.76;69.12
7532;BME280;3807;49.030;8.714;2023-08-01T06:02:46;97993.09;;;20.75;69.36
7532;BME280;3807;49.030;8.714;2023-08-01T06:05:12;97992.84;;;20.68;69.56
7532;BME280;3807;49.030;8.714;2023-08-01T06:07:37;97984.59;;;20.64;71.19
7532;BME280;3807;49.030;8.714;2023-08-01T06:10:03;97995.00;;;20.55;71.51
7532;BME280;3807;49.030;8.714;2023-08-01T06:12:29;97986.31;;;20.64;71.26
7532;BME280;3807;49.030;8.714;2023-08-01T06:14:55;97985.38;;;20.65;72.12
7532;BME280;3807;49.030;8.714;2023-08-01T06:17:20;97975.63;;;20.59;72.19
7532;BME280;3807;49.030;8.714;2023-08-01T06:19:45;97972.97;;;20.68;70.11
7532;BME280;3807;49.030;8.714;2023-08-01T06:22:11;97966.09;;;20.59;70.08
7532;BME280;3807;49.030;8.714;2023-08-01T06:24:36;97947.91;;;20.69;70.00
7532;BME280;3807;49.030;8.714;2023-08-01T06:27:02;97958.97;;;20.43;71.33
7532;BME280;3807;49.030;8.714;2023-08-01T06:29:27;97949.81;;;20.49;70.86
7532;BME280;3807;49.030;8.714;2023-08-01T06:31:53;97945.59;;;20.48;71.30
7532;BME280;3807;49.030;8.714;2023-08-01T06:34:18;97937.97;;;20.29;73.35
7532;BME280;3807;49.030;8.714;2023-08-01T06:36:43;97934.28;;;20.49;70.81
7532;BME280;3807;49.030;8.714;2023-08-01T06:39:09;97933.41;;;20.40;71.47
7532;BME280;3807;49.030;8.714;2023-08-01T06:41:34;97937.03;;;20.48;72.58
7532;BME280;3807;49.030;8.714;2023-08-01T06:43:59;97928.09;;;20.60;70.11
7532;BME280;3807;49.030;8.714;2023-08-01T06:46:25;97942.69;;;20.61;70.19
7532;BME280;3807;49.030;8.714;2023-08-01T06:48:50;97935.31;;;20.74;70.70
7532;BME280;3807;49.030;8.714;2023-08-01T06:51:15;97940.97;;;20.69;70.35
7532;BME280;3807;49.030;8.714;2023-08-01T06:53:41;97940.59;;;20.64;70.67
7532;BME280;3807;49.030;8.714;2023-08-01T06:56:06;97943.31;;;20.63;69.84
7532;BME280;3807;49.030;8.714;2023-08-01T06:58:31;97942.69;;;20.61;70.33
7532;BME280;3807;49.030;8.714;2023-08-01T07:00:57;97939.41;;;20.59;70.23
7532;BME280;3807;49.030;8.714;2023-08-01T07:03:22;97935.34;;;20.56;70.62
7532;BME280;3807;49.030;8.714;2023-08-01T07:05:48;97938.03;;;20.64;69.43
7532;BME280;3807;49.030;8.714;2023-08-01T07:08:13;97931.44;;;20.52;69.94
7532;BME280;3807;49.030;8.714;2023-08-01T07:10:38;97924.75;;;20.50;70.63
7532;BME280;3807;49.030;8.714;2023-08-01T07:13:04;97915.47;;;20.57;70.32
7532;BME280;3807;49.030;8.714;2023-08-01T07:15:30;97926.25;;;20.52;70.48
7532;BME280;3807;49.030;8.714;2023-08-01T07:17:55;97933.22;;;20.52;71.66
7532;BME280;3807;49.030;8.714;2023-08-01T07:20:21;97932.97;;;20.63;69.57
7532;BME280;3807;49.030;8.714;2023-08-01T07:22:46;97932.34;;;20.61;72.87
7532;BME280;3807;49.030;8.714;2023-08-01T07:25:12;97940.59;;;20.64;69.60
7532;BME280;3807;49.030;8.714;2023-08-01T07:27:37;97939.44;;;20.49;73.23
7532;BME280;3807;49.030;8.714;2023-08-01T07:30:04;97947.50;;;20.46;70.76
7532;BME280;3807;49.030;8.714;2023-08-01T07:32:29;97947.72;;;20.35;74.71
7532;BME280;3807;49.030;8.714;2023-08-01T07:34:55;97957.63;;;20.39;72.65
7532;BME280;3807;49.030;8.714;2023-08-01T07:37:20;97955.41;;;20.44;73.44
7532;BME280;3807;49.030;8.714;2023-08-01T07:39:45;97963.00;;;20.56;70.31
7532;BME280;3807;49.030;8.714;2023-08-01T07:42:11;97954.94;;;20.59;71.03
7532;BME280;3807;49.030;8.714;2023-08-01T07:44:36;97953.53;;;20.64;70.07
7532;BME280;3807;49.030;8.714;2023-08-01T07:47:01;97956.25;;;20.63;72.47
7532;BME280;3807;49.030;8.714;2023-08-01T07:49:27;97965.37;;;20.39;72.75
7532;BME280;3807;49.030;8.714;2023-08-01T07:51:52;97968.53;;;20.61;70.15
7532;BME280;3807;49.030;8.714;2023-08-01T07:54:17;97966.78;;;20.61;72.00
7532;BME280;3807;49.030;8.714;2023-08-01T07:56:43;97969.34;;;20.61;73.78
7532;BME280;3807;49.030;8.714;2023-08-01T07:59:09;97964.22;;;20.34;72.83
7532;BME280;3807;49.030;8.714;2023-08-01T08:01:35;97963.63;;;20.40;72.37
7532;BME280;3807;49.030;8.714;2023-08-01T08:04:00;97973.78;;;20.51;73.50
7532;BME280;3807;49.030;8.714;2023-08-01T08:06:26;97981.78;;;20.58;72.14
7532;BME280;3807;49.030;8.714;2023-08-01T08:08:51;97980.34;;;20.63;70.35
7532;BME280;3807;49.030;8.714;2023-08-01T08:11:16;97974.94;;;20.57;72.13
7532;BME280;3807;49.030;8.714;2023-08-01T08:13:42;97973.09;;;20.67;71.79
7532;BME280;3807;49.030;8.714;2023-08-01T08:16:08;97969.06;;;20.64;72.80
7532;BME280;3807;49.030;8.714;2023-08-01T08:18:33;97988.87;;;20.46;72.12
7532;BME280;3807;49.030;8.714;2023-08-01T08:20:58;97991.69;;;20.35;74.89
7532;BME280;3807;49.030;8.714;2023-08-01T08:23:24;97978.38;;;20.30;75.01
7532;BME280;3807;49.030;8.714;2023-08-01T08:25:49;97955.56;;;20.43;73.17
7532;BME280;3807;49.030;8.714;2023-08-01T08:28:26;97957.97;;;20.54;71.79
7532;BME280;3807;49.030;8.714;2023-08-01T08:30:52;97969.69;;;20.49;73.01
7532;BME280;3807;49.030;8.714;2023-08-01T08:33:20;97976.88;;;20.55;72.29
7532;BME280;3807;49.030;8.714;2023-08-01T08:35:46;97982.41;;;20.60;72.14
7532;BME280;3807;49.030;8.714;2023-08-01T08:38:11;97990.84;;;20.62;71.58
7532;BME280;3807;49.030;8.714;2023-08-01T08:40:43;97991.66;;;20.62;73.69
7532;BME280;3807;49.030;8.714;2023-08-01T08:43:11;97998.84;;;20.51;72.38
7532;BME280;3807;49.030;8.714;2023-08-01T08:45:41;98002.94;;;20.43;73.50
7532;BME280;3807;49.030;8.714;2023-08-01T08:48:11;98002.94;;;20.43;74.36
7532;BME280;3807;49.030;8.714;2023-08-01T08:50:37;98009.19;;;20.51;74.95
7532;BME280;3807;49.030;8.714;2023-08-01T08:53:04;98008.91;;;20.44;75.37
7532;BME280;3807;49.030;8.714;2023-08-01T08:55:37;98013.22;;;20.53;74.23
7532;BME280;3807;49.030;8.714;2023-08-01T08:58:03;98007.78;;;20.46;75.16
7532;BME280;3807;49.030;8.714;2023-08-01T09:00:29;98010.72;;;20.16;76.51
7532;BME280;3807;49.030;8.714;2023-08-01T09:02:55;98019.84;;;20.10;76.06
7532;BME280;3807;49.030;8.714;2023-08-01T09:05:24;98008.22;;;19.96;75.60
7532;BME280;3807;49.030;8.714;2023-08-01T09:07:55;98012.81;;;20.30;74.74
7532;BME280;3807;49.030;8.714;2023-08-01T09:10:21;98022.47;;;20.56;73.76
7532;BME280;3807;49.030;8.714;2023-08-01T09:12:47;98031.50;;;20.52;73.84
7532;BME280;3807;49.030;8.714;2023-08-01T09:15:13;98033.06;;;20.62;73.50
7532;BME280;3807;49.030;8.714;2023-08-01T09:17:51;98028.03;;;20.61;72.90
7532;BME280;3807;49.030;8.714;2023-08-01T09:20:17;98020.00;;;20.36;74.75
7532;BME280;3807;49.030;8.714;2023-08-01T09:22:43;98016.94;;;20.23;76.25
7532;BME280;3807;49.030;8.714;2023-08-01T09:25:09;98011.34;;;20.45;73.94
7532;BME280;3807;49.030;8.714;2023-08-01T09:27:35;98010.94;;;20.50;73.81
7532;BME280;3807;49.030;8.714;2023-08-01T09:30:11;98008.56;;;20.57;73.41
7532;BME280;3807;49.030;8.714;2023-08-01T09:32:38;98012.69;;;20.50;75.25
7532;BME280;3807;49.030;8.714;2023-08-01T09:35:04;98023.66;;;20.61;75.02
7532;BME280;3807;49.030;8.714;2023-08-01T09:37:42;98024.84;;;20.67;74.32
7532;BME280;3807;49.030;8.714;2023-08-01T09:40:09;98027.00;;;20.72;73.55
7532;BME280;3807;49.030;8.714;2023-08-01T09:42:42;98027.53;;;20.57;75.93
7532;BME280;3807;49.030;8.714;2023-08-01T09:45:15;98036.09;;;20.58;75.15
7532;BME280;3807;49.030;8.714;2023-08-01T09:47:46;98033.91;;;20.53;75.42
7532;BME280;3807;49.030;8.714;2023-08-01T09:50:20;98040.06;;;20.42;73.94
7532;BME280;3807;49.030;8.714;2023-08-01T09:52:46;98040.00;;;20.62;76.11
7532;BME280;3807;49.030;8.714;2023-08-01T09:55:19;98035.72;;;20.88;75.41
7532;BME280;3807;49.030;8.714;2023-08-01T09:57:48;98038.84;;;20.92;73.36
7532;BME280;3807;49.030;8.714;2023-08-01T10:00:14;98037.47;;;21.06;73.27
7532;BME280;3807;49.030;8.714;2023-08-01T10:02:42;98030.34;;;21.00;75.92
7532;BME280;3807;49.030;8.714;2023-08-01T10:05:08;98028.78;;;20.89;76.53
7532;BME280;3807;49.030;8.714;2023-08-01T10:07:34;98039.63;;;21.10;74.82
7532;BME280;3807;49.030;8.714;2023-08-01T10:10:02;98038.22;;;20.98;76.56
7532;BME280;3807;49.030;8.714;2023-08-01T10:12:29;98039.88;;;20.99;75.80
7532;BME280;3807;49.030;8.714;2023-08-01T10:14:55;98042.25;;;20.75;77.36
7532;BME280;3807;49.030;8.714;2023-08-01T10:17:21;98047.25;;;20.94;77.25
7532;BME280;3807;49.030;8.714;2023-08-01T10:19:48;98054.94;;;21.04;76.18
7532;BME280;3807;49.030;8.714;2023-08-01T10:22:14;98059.09;;;21.14;74.67
7532;BME280;3807;49.030;8.714;2023-08-01T10:24:40;98056.66;;;21.13;76.04
7532;BME280;3807;49.030;8.714;2023-08-01T10:27:14;98045.25;;;20.88;76.77
7532;BME280;3807;49.030;8.714;2023-08-01T10:29:41;98057.37;;;21.05;75.93
7532;BME280;3807;49.030;8.714;2023-08-01T10:32:07;98061.22;;;21.01;76.26
7532;BME280;3807;49.030;8.714;2023-08-01T10:34:32;98051.47;;;21.13;76.31
7532;BME280;3807;49.030;8.714;2023-08-01T10:36:59;98048.50;;;21.08;76.38
7532;BME280;3807;49.030;8.714;2023-08-01T10:39:26;98049.28;;;21.26;75.19
7532;BME280;3807;49.030;8.714;2023-08-01T10:42:05;98051.03;;;21.35;75.49
7532;BME280;3807;49.030;8.714;2023-08-01T10:44:31;98064.66;;;21.37;75.84
7532;BME280;3807;49.030;8.714;2023-08-01T10:47:03;98060.84;;;21.50;75.23
7532;BME280;3807;49.030;8.714;2023-08-01T10:49:34;98060.69;;;21.51;74.45
7532;BME280;3807;49.030;8.714;2023-08-01T10:52:00;98057.91;;;21.45;75.11
7532;BME280;3807;49.030;8.714;2023-08-01T10:54:26;98056.41;;;21.42;74.82
7532;BME280;3807;49.030;8.714;2023-08-01T10:56:57;98058.66;;;21.63;74.31
7532;BME280;3807;49.030;8.714;2023-08-01T10:59:27;98055.59;;;21.94;72.62
7532;BME280;3807;49.030;8.714;2023-08-01T11:01:57;98065.00;;;21.69;72.88
7532;BME280;3807;49.030;8.714;2023-08-01T11:04:23;98063.13;;;21.79;72.18
7532;BME280;3807;49.030;8.714;2023-08-01T11:06:51;98056.53;;;21.84;71.37
7532;BME280;3807;49.030;8.714;2023-08-01T11:11:51;98064.59;;;22.07;69.59
7532;BME280;3807;49.030;8.714;2023-08-01T11:14:20;98067.75;;;22.27;69.17
7532;BME280;3807;49.030;8.714;2023-08-01T11:16:46;98058.75;;;22.40;68.98
7532;BME280;3807;49.030;8.714;2023-08-01T11:19:26;98066.16;;;22.26;68.96
7532;BME280;3807;49.030;8.714;2023-08-01T11:21:53;98071.91;;;22.46;68.64
7532;BME280;3807;49.030;8.714;2023-08-01T11:24:20;98062.81;;;22.50;67.84
7532;BME280;3807;49.030;8.714;2023-08-01T11:26:47;98067.84;;;22.52;67.83
7532;BME280;3807;49.030;8.714;2023-08-01T11:29:13;98073.44;;;22.31;67.88
7532;BME280;3807;49.030;8.714;2023-08-01T11:31:40;98077.19;;;22.28;67.80
7532;BME280;3807;49.030;8.714;2023-08-01T11:34:07;98081.59;;;22.44;67.07
7532;BME280;3807;49.030;8.714;2023-08-01T11:36:35;98084.25;;;22.61;66.48
7532;BME280;3807;49.030;8.714;2023-08-01T11:39:01;98087.97;;;22.58;66.11
7532;BME280;3807;49.030;8.714;2023-08-01T11:41:27;98095.81;;;22.74;65.88
7532;BME280;3807;49.030;8.714;2023-08-01T11:43:53;98097.84;;;22.54;66.19
7532;BME280;3807;49.030;8.714;2023-08-01T11:46:20;98094.34;;;22.72;65.38
7532;BME280;3807;49.030;8.714;2023-08-01T11:48:46;98096.13;;;22.79;64.87
7532;BME280;3807;49.030;8.714;2023-08-01T11:51:17;98103.59;;;22.74;64.77
7532;BME280;3807;49.030;8.714;2023-08-01T11:53:43;98100.78;;;23.02;64.23
7532;BME280;3807;49.030;8.714;2023-08-01T11:56:20;98098.97;;;23.11;63.49
7532;BME280;3807;49.030;8.714;2023-08-01T11:58:45;98099.78;;;23.11;63.46
7532;BME280;3807;49.030;8.714;2023-08-01T12:01:12;98104.34;;;23.25;62.22
7532;BME280;3807;49.030;8.714;2023-08-01T12:03:48;98102.06;;;23.39;61.72
7532;BME280;3807;49.030;8.714;2023-08-01T12:06:14;98102.25;;;23.45;61.53
7532;BME280;3807;49.030;8.714;2023-08-01T12:08:41;98090.72;;;23.32;60.70
7532;BME280;3807;49.030;8.714;2023-08-01T12:11:17;98109.06;;;23.38;60.30
7532;BME280;3807;49.030;8.714;2023-08-01T12:13:44;98109.91;;;23.71;58.88
7532;BME280;3807;49.030;8.714;2023-08-01T12:16:09;98112.13;;;23.91;58.11
7532;BME280;3807;49.030;8.714;2023-08-01T12:18:34;98107.91;;;23.90;58.24
7532;BME280;3807;49.030;8.714;2023-08-01T12:21:02;98101.94;;;23.73;58.21
7532;BME280;3807;49.030;8.714;2023-08-01T12:23:30;98110.59;;;24.13;56.57
7532;BME280;3807;49.030;8.714;2023-08-01T12:25:56;98106.00;;;24.31;56.63
7532;BME280;3807;49.030;8.714;2023-08-01T12:28:21;98101.22;;;24.51;55.61
7532;BME280;3807;49.030;8.714;2023-08-01T12:30:46;98087.63;;;24.33;56.57
7532;BME280;3807;49.030;8.714;2023-08-01T12:33:12;98103.13;;;24.18;57.06
7532;BME280;3807;49.030;8.714;2023-08-01T12:35:41;98101.28;;;24.43;55.68
7532;BME280;3807;49.030;8.714;2023-08-01T12:38:07;98103.00;;;24.51;54.83
7532;BME280;3807;49.030;8.714;2023-08-01T12:40:32;98093.13;;;24.46;54.69
7532;BME280;3807;49.030;8.714;2023-08-01T12:42:58;98107.16;;;24.68;53.44
7532;BME280;3807;49.030;8.714;2023-08-01T12:45:23;98106.44;;;24.82;53.01
7532;BME280;3807;49.030;8.714;2023-08-01T12:47:49;98103.13;;;24.97;52.87
7532;BME280;3807;49.030;8.714;2023-08-01T12:50:14;98109.75;;;24.99;52.13
7532;BME280;3807;49.030;8.714;2023-08-01T12:52:39;98107.78;;;25.01;52.13
7532;BME280;3807;49.030;8.714;2023-08-01T12:55:05;98110.59;;;25.23;51.86
7532;BME280;3807;49.030;8.714;2023-08-01T12:57:31;98102.91;;;25.29;51.69
7532;BME280;3807;49.030;8.714;2023-08-01T12:59:56;98101.31;;;25.43;51.05
7532;BME280;3807;49.030;8.714;2023-08-01T13:02:21;98099.19;;;25.61;51.37
7532;BME280;3807;49.030;8.714;2023-08-01T13:04:47;98095.81;;;25.76;50.43
7532;BME280;3807;49.030;8.714;2023-08-01T13:07:12;98105.03;;;26.01;49.97
7532;BME280;3807;49.030;8.714;2023-08-01T13:09:37;98106.41;;;26.12;49.51
7532;BME280;3807;49.030;8.714;2023-08-01T13:12:03;98096.31;;;26.09;51.48
7532;BME280;3807;49.030;8.714;2023-08-01T13:14:28;98094.16;;;26.12;51.55
7532;BME280;3807;49.030;8.714;2023-08-01T13:16:54;98090.56;;;25.99;51.31
7532;BME280;3807;49.030;8.714;2023-08-01T13:19:19;98093.78;;;25.86;50.82